Latest Weather Observations for Richmond

IDQ60801

Issued at 11:35 am EST Friday 1 August 2014 (issued every 30 minutes, with the page automatically refreshed every 10 minutes)

About weather observations | Map of weather stations | Latest weather observations for QLD | Other Formats
Station Details ID: 030161 Name: RICHMOND AIRPORT Lat: -20.70 Lon: 143.12 Height: 206.3 m
Data from the previous 72 hours. | See also: Recent months at Richmond
Date/Time
EST
Temp
°C
App
Temp
°C
Dew
Point
Rel
Hum
%
Delta-T
°C
Wind Press
QNH
hPa
Press
MSL
hPa
Rain
since 9 am
mm
Dir
 
Spd
km/h
Gust
km/h
Spd
kts
Gust
kts
01/11:30am 27.7 20.6 -4.3 12 14.0 S 24 35 13 19 1018.5 - 0.0
01/11:00am 26.4 18.9 -4.2 13 13.3 S 26 33 14 18 1018.8 1018.3 0.0
01/10:30am 25.9 18.8 -4.6 13 13.1 S 24 35 13 19 1019.0 - 0.0
01/10:00am 24.8 17.7 -4.5 14 12.5 SSE 24 30 13 16 1019.2 1018.7 0.0
01/09:30am 23.5 17.2 -3.7 16 11.6 SSE 20 26 11 14 1019.0 - 0.0
01/09:00am 21.3 14.7 -3.2 19 10.4 SSE 22 30 12 16 1018.8 1018.4 0.0
01/08:30am 18.8 13.8 -1.1 26 8.6 SSE 15 22 8 12 1018.5 - 0.0
01/08:00am 15.1 10.9 -0.6 34 6.6 SSE 11 15 6 8 1018.2 1017.8 0.0
01/07:30am 12.7 8.2 -0.2 41 5.4 S 13 15 7 8 1017.9 - 0.0
01/07:00am 12.1 7.3 0.5 45 4.9 S 15 17 8 9 1017.6 1017.2 0.0
01/06:30am 12.8 8.4 0.5 43 5.2 S 13 17 7 9 1017.3 - 0.0
01/06:00am 14.2 10.4 1.5 42 5.6 S 11 13 6 7 1016.7 1016.3 0.0
01/05:30am 14.5 10.6 1.1 40 5.8 S 11 13 6 7 1016.4 - 0.0
01/05:00am 14.8 10.1 1.0 39 6.0 S 15 17 8 9 1016.2 1015.8 0.0
01/04:30am 16.0 10.7 3.1 42 5.9 SSW 20 28 11 15 1016.1 - 0.0
01/04:00am 13.0 10.0 2.0 47 4.8 E 7 9 4 5 1015.4 1014.9 0.0
01/03:30am 12.6 10.2 -0.3 41 5.3 E 2 9 1 5 1015.4 - 0.0
01/03:00am 15.2 11.9 2.4 42 5.8 E 9 11 5 6 1015.5 1015.0 0.0
01/02:30am 15.2 11.8 2.1 41 5.9 ESE 9 11 5 6 1015.8 - 0.0
01/02:00am 16.0 11.9 2.4 40 6.2 E 13 13 7 7 1015.8 1015.3 0.0
01/01:30am 16.4 12.7 2.4 39 6.4 E 11 13 6 7 1016.0 - 0.0
01/01:00am 15.5 12.1 1.6 39 6.2 ESE 9 11 5 6 1016.1 1015.7 0.0
01/12:30am 14.9 11.7 0.7 38 6.2 SE 7 9 4 5 1016.2 - 0.0
01/12:00am 15.8 12.7 1.2 37 6.4 ESE 7 9 4 5 1016.2 1015.8 0.0
 
Date/Time
EST
Temp
°C
App
Temp
°C
Dew
Point
Rel
Hum
%
Delta-T
°C
Wind Press
QNH
hPa
Press
MSL
hPa
Rain
since 9 am
mm
Dir
 
Spd
km/h
Gust
km/h
Spd
kts
Gust
kts
31/11:30pm 16.5 13.2 2.5 39 6.4 ESE 9 11 5 6 1016.1 - 0.0
31/11:00pm 18.6 15.0 4.8 40 6.7 E 13 13 7 7 1016.1 1015.7 0.0
31/10:30pm 19.5 16.3 5.2 39 7.1 E 11 13 6 7 1016.1 - 0.0
31/10:00pm 19.9 17.0 4.4 36 7.5 SE 9 11 5 6 1016.1 1015.7 0.0
31/09:30pm 20.3 16.5 3.9 34 7.9 SSE 13 15 7 8 1016.0 - 0.0
31/09:00pm 21.3 18.0 4.4 33 8.3 SSE 11 13 6 7 1016.1 1015.7 0.0
31/08:30pm 21.9 18.6 4.5 32 8.6 SE 11 13 6 7 1015.9 - 0.0
31/08:00pm 22.8 19.5 4.3 30 9.2 SSE 11 11 6 6 1015.6 1015.1 0.0
31/07:30pm 23.3 20.3 4.3 29 9.5 SSE 9 11 5 6 1015.2 - 0.0
31/07:00pm 24.2 21.3 4.6 28 9.9 S 9 9 5 5 1014.8 1014.3 0.0
31/06:30pm 25.2 21.9 4.3 26 10.5 SSW 11 13 6 7 1014.6 - 0.0
31/06:00pm 27.0 23.8 5.3 25 11.2 SSW 11 13 6 7 1014.5 1014.0 0.0
31/05:30pm 28.4 26.1 5.9 24 11.9 SSW 7 13 4 7 1014.3 - 0.0
31/05:00pm 29.2 26.3 6.6 24 12.1 W 11 19 6 10 1014.3 1013.9 0.0
31/04:30pm 29.4 27.3 6.7 24 12.2 S 7 13 4 7 1014.2 - 0.0
31/04:00pm 29.1 26.6 6.5 24 12.1 S 9 15 5 8 1014.2 1013.8 0.0
31/03:30pm 29.3 25.7 6.7 24 12.2 SW 15 17 8 9 1014.5 - 0.0
31/03:00pm 29.3 25.7 6.7 24 12.2 W 15 19 8 10 1014.7 1014.2 0.0
31/02:30pm 29.8 28.1 7.7 25 12.1 N 6 9 3 5 1015.0 - 0.0
31/02:00pm 29.0 26.4 7.6 26 11.7 SSW 11 20 6 11 1015.3 1014.8 0.0
31/01:30pm 28.8 26.2 7.9 27 11.4 SW 11 17 6 9 1015.8 - 0.0
31/01:00pm 28.7 26.2 8.4 28 11.2 WSW 11 20 6 11 1016.3 1015.9 0.0
31/12:30pm 27.7 26.1 8.1 29 10.7 W 6 13 3 7 1016.9 - 0.0
31/12:00pm 27.1 25.4 8.5 31 10.2 SSE 7 15 4 8 1017.4 1017.0 0.0
31/11:30am 26.1 25.4 8.6 33 9.6 S 2 11 1 6 1018.0 - 0.0
31/11:00am 25.7 24.5 9.5 36 9.0 NNE 6 11 3 6 1018.6 1018.2 0.0
31/10:30am 24.8 23.9 9.1 37 8.6 N 4 9 2 5 1018.7 - 0.0
31/10:00am 23.4 22.3 10.1 43 7.3 NNE 6 13 3 7 1019.0 1018.6 0.0
31/09:30am 21.5 19.8 9.7 47 6.4 NE 9 15 5 8 1019.2 - 0.0
31/09:00am 19.7 17.8 9.0 50 5.7 ENE 9 11 5 6 1019.0 1018.6 0.0
31/08:30am 16.3 14.0 5.9 50 5.1 E 7 9 4 5 1018.9 - 0.0
31/08:00am 13.5 10.9 3.3 50 4.6 E 6 7 3 4 1018.7 1018.3 0.0
31/07:30am 12.0 9.3 3.5 56 3.8 E 7 9 4 5 1018.4 - 0.0
31/07:00am 10.7 7.9 2.0 55 3.7 ESE 6 9 3 5 1017.8 1017.4 0.0
31/06:30am 11.7 8.5 3.0 55 3.9 ESE 9 9 5 5 1017.4 - 0.0
31/06:00am 12.1 8.6 3.3 55 3.9 E 11 13 6 7 1016.9 1016.5 0.0
31/05:30am 12.5 9.4 3.5 54 4.1 ESE 9 11 5 6 1016.7 - 0.0
31/05:00am 12.9 9.8 3.6 53 4.2 ESE 9 9 5 5 1016.8 1016.4 0.0
31/04:30am 12.7 9.4 2.6 50 4.5 ESE 9 13 5 7 1016.6 - 0.0
31/04:00am 13.7 10.1 3.2 49 4.7 E 11 13 6 7 1016.6 1016.2 0.0
31/03:30am 14.6 11.1 3.7 48 5.0 E 11 13 6 7 1016.7 - 0.0
31/03:00am 14.5 10.6 3.3 47 5.1 E 13 13 7 7 1016.8 1016.4 0.0
31/02:30am 14.5 10.8 2.4 44 5.4 E 11 13 6 7 1017.0 - 0.0
31/02:00am 15.2 11.2 3.0 44 5.6 E 13 15 7 8 1017.0 1016.6 0.0
31/01:30am 14.7 11.4 2.6 44 5.5 ESE 9 11 5 6 1017.0 - 0.0
31/01:00am 14.0 10.5 1.3 42 5.5 ESE 9 11 5 6 1017.1 1016.7 0.0
31/12:30am 14.2 11.1 1.2 41 5.7 ESE 7 9 4 5 1017.2 - 0.0
31/12:00am 14.2 10.5 -0.3 37 6.1 ESE 9 9 5 5 1017.4 1017.0 0.0
 
Date/Time
EST
Temp
°C
App
Temp
°C
Dew
Point
Rel
Hum
%
Delta-T
°C
Wind Press
QNH
hPa
Press
MSL
hPa
Rain
since 9 am
mm
Dir
 
Spd
km/h
Gust
km/h
Spd
kts
Gust
kts
30/11:30pm 17.0 13.0 2.6 38 6.6 ESE 13 13 7 7 1017.6 - 0.0
30/11:00pm 18.4 14.1 3.5 37 7.0 ESE 15 15 8 8 1017.7 1017.3 0.0
30/10:30pm 18.6 14.4 3.6 37 7.1 ESE 15 17 8 9 1017.9 - 0.0
30/10:00pm 18.3 14.0 3.0 36 7.1 ESE 15 17 8 9 1017.8 1017.4 0.0
30/09:30pm 18.7 14.8 3.3 36 7.3 ESE 13 15 7 8 1017.7 - 0.0
30/09:00pm 19.6 15.2 2.5 32 8.0 ESE 15 17 8 9 1017.6 1017.2 0.0
30/08:30pm 21.1 16.4 3.3 31 8.6 ESE 17 19 9 10 1017.3 - 0.0
30/08:00pm 22.0 17.4 3.6 30 8.9 ESE 17 20 9 11 1017.0 1016.6 0.0
30/07:30pm 21.3 16.5 2.6 29 8.9 SE 17 19 9 10 1016.8 - 0.0
30/07:00pm 23.1 18.4 3.1 27 9.7 ESE 17 20 9 11 1016.6 1016.2 0.0
30/06:30pm 24.0 19.6 2.8 25 10.3 ESE 15 17 8 9 1016.3 - 0.0
30/06:00pm 26.7 21.6 3.2 22 11.7 ESE 19 28 10 15 1016.1 1015.7 0.0
30/05:30pm 27.8 23.2 3.5 21 12.3 E 17 24 9 13 1015.9 - 0.0
30/05:00pm 28.3 23.0 3.2 20 12.6 ESE 20 26 11 14 1015.8 1015.3 0.0
30/04:30pm 28.9 23.6 3.0 19 13.1 ESE 20 32 11 17 1015.7 - 0.0
30/04:00pm 29.0 23.9 3.1 19 13.1 E 19 24 10 13 1015.6 1015.1 0.0
30/03:30pm 29.0 23.9 3.1 19 13.1 E 19 30 10 16 1015.5 - 0.0
30/03:00pm 29.2 24.3 3.9 20 13.0 ESE 19 30 10 16 1015.6 1015.1 0.0
30/02:30pm 28.9 23.1 4.4 21 12.7 ESE 24 37 13 20 1016.0 - 0.0
30/02:00pm 28.7 22.5 4.2 21 12.6 ESE 26 35 14 19 1016.6 1016.2 0.0
30/01:30pm 28.2 22.4 4.5 22 12.2 ESE 24 35 13 19 1017.2 - 0.0
30/01:00pm 27.7 22.0 4.7 23 11.8 ESE 24 35 13 19 1017.7 1017.3 0.0
30/12:30pm 27.4 22.5 5.1 24 11.6 ESE 20 35 11 19 1018.5 - 0.0
30/12:00pm 27.4 21.0 5.1 24 11.5 ESE 28 43 15 23 1018.9 1018.5 0.0
30/11:30am 27.0 22.3 5.3 25 11.3 ESE 19 35 10 19 1019.6 - 0.0
30/11:00am 26.3 21.7 5.8 27 10.7 ESE 19 24 10 13 1020.1 1019.7 0.0
30/10:30am 25.2 22.0 6.9 31 9.7 E 13 19 7 10 1020.5 - 0.0
30/10:00am 23.1 20.4 7.2 36 8.3 E 11 15 6 8 1020.7 1020.3 0.0
30/09:30am 21.6 19.0 7.8 41 7.2 E 11 17 6 9 1020.7 - 0.0
30/09:00am 19.2 16.4 7.0 45 6.2 E 11 13 6 7 1020.6 1020.2 0.0
30/08:30am 17.6 14.7 6.5 48 5.5 ESE 11 13 6 7 1020.4 - 0.0
30/08:00am 13.8 10.8 4.1 52 4.5 ESE 9 13 5 7 1020.4 1020.0 0.0
30/07:30am 11.8 7.9 3.3 56 3.8 SE 13 13 7 7 1020.1 - 0.0
30/07:00am 11.3 7.7 2.9 56 3.7 ESE 11 13 6 7 1019.8 1019.3 0.0
30/06:30am 12.3 8.8 3.5 55 4.0 E 11 13 6 7 1019.3 - 0.0
30/06:00am 12.2 9.0 2.9 53 4.1 ESE 9 11 5 6 1019.2 1018.8 0.0
30/05:30am 13.0 9.8 3.1 51 4.4 E 9 11 5 6 1018.8 - 0.0
30/05:00am 13.9 10.5 3.9 51 4.6 E 11 13 6 7 1018.7 1018.3 0.0
30/04:30am 13.8 10.7 3.6 50 4.7 E 9 11 5 6 1018.6 - 0.0
30/04:00am 13.7 10.9 3.2 49 4.7 ESE 7 9 4 5 1018.4 1018.0 0.0
30/03:30am 15.4 11.7 4.2 47 5.2 E 13 13 7 7 1018.4 - 0.0
30/03:00am 15.7 11.9 3.8 45 5.5 E 13 13 7 7 1018.5 1018.1 0.0
30/02:30am 16.2 12.3 3.6 43 5.9 ESE 13 15 7 8 1018.5 - 0.0
30/02:00am 17.1 13.0 4.1 42 6.1 ESE 15 17 8 9 1018.5 1018.1 0.0
30/01:30am 17.8 12.9 4.0 40 6.6 E 19 20 10 11 1018.6 - 0.0
30/01:00am 18.7 13.8 4.1 38 7.0 ESE 19 20 10 11 1018.9 1018.5 0.0
30/12:30am 19.4 14.3 4.3 37 7.3 ESE 20 24 11 13 1018.9 - 0.0
30/12:00am 19.8 14.7 3.9 35 7.6 ESE 20 22 11 12 1018.9 1018.5 0.0
 
Date/Time
EST
Temp
°C
App
Temp
°C
Dew
Point
Rel
Hum
%
Delta-T
°C
Wind Press
QNH
hPa
Press
MSL
hPa
Rain
since 9 am
mm
Dir
 
Spd
km/h
Gust
km/h
Spd
kts
Gust
kts
29/11:30pm 20.0 14.8 3.7 34 7.8 E 20 28 11 15 1018.9 - 0.0
29/11:00pm 20.2 15.1 3.9 34 7.9 E 20 24 11 13 1019.0 1018.6 0.0
29/10:30pm 19.9 14.8 3.2 33 7.9 ESE 19 22 10 12 1019.0 - 0.0
29/10:00pm 20.4 15.8 3.6 33 8.1 ESE 17 20 9 11 1019.0 1018.6 0.0
29/09:30pm 20.5 15.9 3.7 33 8.1 ESE 17 19 9 10 1018.9 - 0.0
29/09:00pm 19.7 15.7 3.0 33 7.9 SE 13 17 7 9 1018.8 1018.4 0.0
29/08:30pm 21.5 16.9 3.7 31 8.6 ESE 17 19 9 10 1018.5 - 0.0
29/08:00pm 21.9 17.0 4.0 31 8.8 ESE 19 19 10 10 1018.1 1017.7 0.0
29/07:30pm 22.2 18.0 3.8 30 9.0 SE 15 17 8 9 1017.8 - 0.0
29/07:00pm 23.5 19.7 4.0 28 9.6 ESE 13 15 7 8 1017.6 1017.2 0.0
29/06:30pm 24.5 20.3 3.8 26 10.3 SE 15 17 8 9 1017.4 - 0.0
29/06:00pm 26.5 22.4 4.3 24 11.3 SE 15 19 8 10 1017.2 1016.8 0.0
29/05:30pm 28.2 25.0 5.1 23 12.0 SE 11 20 6 11 1016.9 - 0.0
29/05:00pm 28.6 23.6 4.8 22 12.3 SE 20 22 11 12 1016.7 1016.3 0.0
29/04:30pm 28.8 24.4 5.0 22 12.4 E 17 26 9 14 1016.5 - 0.0
29/04:00pm 29.0 25.8 5.1 22 12.5 SE 11 17 6 9 1016.4 1016.0 0.0
29/03:30pm 29.0 24.7 5.1 22 12.5 SE 17 24 9 13 1016.4 - 0.0
29/03:00pm 29.0 25.0 5.1 22 12.5 S 15 22 8 12 1016.4 1016.0 0.0
29/02:30pm 29.2 25.1 6.0 23 12.3 SSE 17 28 9 15 1016.9 - 0.0
29/02:00pm 28.7 26.1 6.1 24 12.0 E 9 15 5 8 1017.3 1016.9 0.0
29/01:30pm 29.6 26.4 6.9 24 12.3 ENE 13 22 7 12 1017.7 - 0.0
29/01:00pm 28.4 26.0 7.1 26 11.5 E 9 19 5 10 1018.3 1017.9 0.0
29/12:30pm 28.6 24.0 6.7 25 11.7 ESE 20 24 11 13 1018.9 - 0.0
29/12:00pm 27.5 25.3 7.9 29 10.6 S 9 15 5 8 1019.4 1019.0 0.0

Other Formats:

Comma delimited format used in spreadsheet applications
http://www.bom.gov.au/fwo/IDQ60801/IDQ60801.94341.axf

JavaScript Object Notation format (JSON) in row-major order
http://www.bom.gov.au/fwo/IDQ60801/IDQ60801.94341.json